sensor_id;sensor_type;location;lat;lon;timestamp;pressure;altitude;pressure_sealevel;temperature;humidity
21102;BME280;10709;49.006;12.100;2023-11-21T00:00:09;48910.59;;;-146.00;100.00
21102;BME280;10709;49.006;12.100;2023-11-21T00:02:43;48902.75;;;-146.00;100.00
21102;BME280;10709;49.006;12.100;2023-11-21T00:05:12;48918.44;;;-146.00;100.00
21102;BME280;10709;49.006;12.100;2023-11-21T00:07:40;48914.50;;;-146.00;100.00
21102;BME280;10709;49.006;12.100;2023-11-21T00:10:10;48922.34;;;-146.00;100.00
21102;BME280;10709;49.006;12.100;2023-11-21T00:12:37;48918.44;;;-146.00;100.00
21102;BME280;10709;49.006;12.100;2023-11-21T00:15:04;48918.44;;;-146.00;100.00
21102;BME280;10709;49.006;12.100;2023-11-21T00:17:32;48922.34;;;-146.00;100.00
21102;BME280;10709;49.006;12.100;2023-11-21T00:20:00;48922.34;;;-146.00;100.00
21102;BME280;10709;49.006;12.100;2023-11-21T00:22:27;48922.34;;;-146.00;100.00
21102;BME280;10709;49.006;12.100;2023-11-21T00:24:54;48922.34;;;-146.00;100.00
21102;BME280;10709;49.006;12.100;2023-11-21T00:27:20;48930.19;;;-146.00;100.00
21102;BME280;10709;49.006;12.100;2023-11-21T00:29:47;48908.63;;;-146.00;100.00
21102;BME280;10709;49.006;12.100;2023-11-21T00:32:15;48918.44;;;-146.00;100.00
21102;BME280;10709;49.006;12.100;2023-11-21T00:34:43;48928.22;;;-146.00;100.00
21102;BME280;10709;49.006;12.100;2023-11-21T00:37:09;48922.34;;;-146.00;100.00
21102;BME280;10709;49.006;12.100;2023-11-21T00:39:37;48912.56;;;-146.00;100.00
21102;BME280;10709;49.006;12.100;2023-11-21T00:42:05;48910.59;;;-146.00;100.00
21102;BME280;10709;49.006;12.100;2023-11-21T00:44:32;48914.50;;;-146.00;100.00
21102;BME280;10709;49.006;12.100;2023-11-21T00:47:00;48906.69;;;-146.00;100.00
21102;BME280;10709;49.006;12.100;2023-11-21T00:49:27;48910.59;;;-146.00;100.00
21102;BME280;10709;49.006;12.100;2023-11-21T00:51:54;48910.59;;;-146.00;100.00
21102;BME280;10709;49.006;12.100;2023-11-21T00:54:21;48910.59;;;-146.00;100.00
21102;BME280;10709;49.006;12.100;2023-11-21T00:56:47;48910.59;;;-146.00;100.00
21102;BME280;10709;49.006;12.100;2023-11-21T00:59:15;48904.72;;;-146.00;100.00
21102;BME280;10709;49.006;12.100;2023-11-21T01:01:42;48910.59;;;-146.00;100.00
21102;BME280;10709;49.006;12.100;2023-11-21T01:04:11;48906.69;;;-146.00;100.00
21102;BME280;10709;49.006;12.100;2023-11-21T01:06:38;48912.56;;;-146.00;100.00
21102;BME280;10709;49.006;12.100;2023-11-21T01:09:05;48922.34;;;-146.00;100.00
21102;BME280;10709;49.006;12.100;2023-11-21T01:11:35;48912.56;;;-146.00;100.00
21102;BME280;10709;49.006;12.100;2023-11-21T01:14:04;48914.50;;;-146.00;100.00
21102;BME280;10709;49.006;12.100;2023-11-21T01:16:31;48916.47;;;-146.00;100.00
21102;BME280;10709;49.006;12.100;2023-11-21T01:18:59;48908.63;;;-146.00;100.00
21102;BME280;10709;49.006;12.100;2023-11-21T01:21:26;48906.69;;;-146.00;100.00
21102;BME280;10709;49.006;12.100;2023-11-21T01:23:52;48910.59;;;-146.00;100.00
21102;BME280;10709;49.006;12.100;2023-11-21T01:26:20;48906.69;;;-146.00;100.00
21102;BME280;10709;49.006;12.100;2023-11-21T01:28:47;48910.59;;;-146.00;100.00
21102;BME280;10709;49.006;12.100;2023-11-21T01:31:17;48918.44;;;-146.00;100.00
21102;BME280;10709;49.006;12.100;2023-11-21T01:33:44;48918.44;;;-146.00;100.00
21102;BME280;10709;49.006;12.100;2023-11-21T01:36:12;48926.25;;;-146.00;100.00
21102;BME280;10709;49.006;12.100;2023-11-21T01:38:38;48914.50;;;-146.00;100.00
21102;BME280;10709;49.006;12.100;2023-11-21T01:41:05;48916.47;;;-146.00;100.00
21102;BME280;10709;49.006;12.100;2023-11-21T01:43:32;48920.38;;;-146.00;100.00
21102;BME280;10709;49.006;12.100;2023-11-21T01:45:59;48914.50;;;-146.00;100.00
21102;BME280;10709;49.006;12.100;2023-11-21T01:48:27;48920.38;;;-146.00;100.00
21102;BME280;10709;49.006;12.100;2023-11-21T01:50:54;48918.44;;;-146.00;100.00
21102;BME280;10709;49.006;12.100;2023-11-21T01:53:21;48918.44;;;-146.00;100.00
21102;BME280;10709;49.006;12.100;2023-11-21T01:55:47;48914.50;;;-146.00;100.00
21102;BME280;10709;49.006;12.100;2023-11-21T01:58:15;48914.50;;;-146.00;100.00
21102;BME280;10709;49.006;12.100;2023-11-21T02:00:42;48914.50;;;-146.00;100.00
21102;BME280;10709;49.006;12.100;2023-11-21T02:03:09;48906.69;;;-146.00;100.00
21102;BME280;10709;49.006;12.100;2023-11-21T02:05:37;48906.69;;;-146.00;100.00
21102;BME280;10709;49.006;12.100;2023-11-21T02:08:03;48914.50;;;-146.00;100.00
21102;BME280;10709;49.006;12.100;2023-11-21T02:10:30;48910.59;;;-146.00;100.00
21102;BME280;10709;49.006;12.100;2023-11-21T02:12:57;48916.47;;;-146.00;100.00
21102;BME280;10709;49.006;12.100;2023-11-21T02:15:25;48910.59;;;-146.00;100.00
21102;BME280;10709;49.006;12.100;2023-11-21T02:17:55;48910.59;;;-146.00;100.00
21102;BME280;10709;49.006;12.100;2023-11-21T02:20:24;48900.78;;;-146.00;100.00
21102;BME280;10709;49.006;12.100;2023-11-21T02:22:53;48902.75;;;-146.00;100.00
21102;BME280;10709;49.006;12.100;2023-11-21T02:25:32;48902.75;;;-146.00;100.00
21102;BME280;10709;49.006;12.100;2023-11-21T02:28:01;48902.75;;;-146.00;100.00
21102;BME280;10709;49.006;12.100;2023-11-21T02:30:29;48898.84;;;-146.00;100.00
21102;BME280;10709;49.006;12.100;2023-11-21T02:33:00;48896.88;;;-146.00;100.00
21102;BME280;10709;49.006;12.100;2023-11-21T02:35:27;48898.84;;;-146.00;100.00
21102;BME280;10709;49.006;12.100;2023-11-21T02:37:54;48896.88;;;-146.00;100.00
21102;BME280;10709;49.006;12.100;2023-11-21T02:40:21;48898.84;;;-146.00;100.00
21102;BME280;10709;49.006;12.100;2023-11-21T02:42:48;48889.03;;;-146.00;100.00
21102;BME280;10709;49.006;12.100;2023-11-21T02:45:15;48883.16;;;-146.00;100.00
21102;BME280;10709;49.006;12.100;2023-11-21T02:47:51;48891.00;;;-146.00;100.00
21102;BME280;10709;49.006;12.100;2023-11-21T02:50:19;48887.09;;;-146.00;100.00
21102;BME280;10709;49.006;12.100;2023-11-21T02:52:48;48889.03;;;-146.00;100.00
21102;BME280;10709;49.006;12.100;2023-11-21T02:55:15;48887.09;;;-146.00;100.00
21102;BME280;10709;49.006;12.100;2023-11-21T02:57:42;48887.09;;;-146.00;100.00
21102;BME280;10709;49.006;12.100;2023-11-21T03:00:09;48892.97;;;-146.00;100.00
21102;BME280;10709;49.006;12.100;2023-11-21T03:02:46;48891.00;;;-146.00;100.00
21102;BME280;10709;49.006;12.100;2023-11-21T03:05:14;48887.09;;;-146.00;100.00
21102;BME280;10709;49.006;12.100;2023-11-21T03:07:40;48883.16;;;-146.00;100.00
21102;BME280;10709;49.006;12.100;2023-11-21T03:10:08;48883.16;;;-146.00;100.00
21102;BME280;10709;49.006;12.100;2023-11-21T03:12:41;48883.16;;;-146.00;100.00
21102;BME280;10709;49.006;12.100;2023-11-21T03:15:08;48883.16;;;-146.00;100.00
21102;BME280;10709;49.006;12.100;2023-11-21T03:17:38;48879.25;;;-146.00;100.00
21102;BME280;10709;49.006;12.100;2023-11-21T03:20:06;48885.13;;;-146.00;100.00
21102;BME280;10709;49.006;12.100;2023-11-21T03:22:37;48887.09;;;-146.00;100.00
21102;BME280;10709;49.006;12.100;2023-11-21T03:25:06;48891.00;;;-146.00;100.00
21102;BME280;10709;49.006;12.100;2023-11-21T03:27:32;48894.91;;;-146.00;100.00
21102;BME280;10709;49.006;12.100;2023-11-21T03:30:00;48906.69;;;-146.00;100.00
21102;BME280;10709;49.006;12.100;2023-11-21T03:32:29;48908.63;;;-146.00;100.00
21102;BME280;10709;49.006;12.100;2023-11-21T03:34:59;48906.69;;;-146.00;100.00
21102;BME280;10709;49.006;12.100;2023-11-21T03:37:26;48898.84;;;-146.00;100.00
21102;BME280;10709;49.006;12.100;2023-11-21T03:39:56;48898.84;;;-146.00;100.00
21102;BME280;10709;49.006;12.100;2023-11-21T03:42:23;48896.88;;;-146.00;100.00
21102;BME280;10709;49.006;12.100;2023-11-21T03:44:53;48898.84;;;-146.00;100.00
21102;BME280;10709;49.006;12.100;2023-11-21T03:47:20;48898.84;;;-146.00;100.00
21102;BME280;10709;49.006;12.100;2023-11-21T03:49:46;48892.97;;;-146.00;100.00
21102;BME280;10709;49.006;12.100;2023-11-21T03:52:13;48894.91;;;-146.00;100.00
21102;BME280;10709;49.006;12.100;2023-11-21T03:54:40;48887.09;;;-146.00;100.00
21102;BME280;10709;49.006;12.100;2023-11-21T03:57:07;48894.91;;;-146.00;100.00
21102;BME280;10709;49.006;12.100;2023-11-21T03:59:33;48894.91;;;-146.00;100.00
21102;BME280;10709;49.006;12.100;2023-11-21T04:02:00;48902.75;;;-146.00;100.00
21102;BME280;10709;49.006;12.100;2023-11-21T04:04:27;48891.00;;;-146.00;100.00
21102;BME280;10709;49.006;12.100;2023-11-21T04:06:54;48892.97;;;-146.00;100.00
21102;BME280;10709;49.006;12.100;2023-11-21T04:09:20;48891.00;;;-146.00;100.00
21102;BME280;10709;49.006;12.100;2023-11-21T04:11:47;48898.84;;;-146.00;100.00
21102;BME280;10709;49.006;12.100;2023-11-21T04:14:15;48891.00;;;-146.00;100.00
21102;BME280;10709;49.006;12.100;2023-11-21T04:16:41;48887.09;;;-146.00;100.00
21102;BME280;10709;49.006;12.100;2023-11-21T04:19:08;48894.91;;;-146.00;100.00
21102;BME280;10709;49.006;12.100;2023-11-21T04:21:37;48889.03;;;-146.00;100.00
21102;BME280;10709;49.006;12.100;2023-11-21T04:24:06;48883.16;;;-146.00;100.00
21102;BME280;10709;49.006;12.100;2023-11-21T04:26:33;48879.25;;;-146.00;100.00
21102;BME280;10709;49.006;12.100;2023-11-21T04:29:00;48887.09;;;-146.00;100.00
21102;BME280;10709;49.006;12.100;2023-11-21T04:31:27;48887.09;;;-146.00;100.00
21102;BME280;10709;49.006;12.100;2023-11-21T04:33:53;48881.22;;;-146.00;100.00
21102;BME280;10709;49.006;12.100;2023-11-21T04:36:20;48883.16;;;-146.00;100.00
21102;BME280;10709;49.006;12.100;2023-11-21T04:38:48;48881.22;;;-146.00;100.00
21102;BME280;10709;49.006;12.100;2023-11-21T04:41:15;48875.34;;;-146.00;100.00
21102;BME280;10709;49.006;12.100;2023-11-21T04:43:42;48879.25;;;-146.00;100.00
21102;BME280;10709;49.006;12.100;2023-11-21T04:46:10;48873.38;;;-146.00;100.00
21102;BME280;10709;49.006;12.100;2023-11-21T04:48:37;48881.22;;;-146.00;100.00
21102;BME280;10709;49.006;12.100;2023-11-21T04:51:07;48875.34;;;-146.00;100.00
21102;BME280;10709;49.006;12.100;2023-11-21T04:53:33;48883.16;;;-146.00;100.00
21102;BME280;10709;49.006;12.100;2023-11-21T04:56:03;48885.13;;;-146.00;100.00
21102;BME280;10709;49.006;12.100;2023-11-21T04:58:31;48891.00;;;-146.00;100.00
21102;BME280;10709;49.006;12.100;2023-11-21T05:00:58;48894.91;;;-146.00;100.00
21102;BME280;10709;49.006;12.100;2023-11-21T05:03:25;48894.91;;;-146.00;100.00
21102;BME280;10709;49.006;12.100;2023-11-21T05:05:52;48887.09;;;-146.00;100.00
21102;BME280;10709;49.006;12.100;2023-11-21T05:08:19;48883.16;;;-146.00;100.00
21102;BME280;10709;49.006;12.100;2023-11-21T05:10:50;48891.00;;;-146.00;100.00
21102;BME280;10709;49.006;12.100;2023-11-21T05:13:18;48894.91;;;-146.00;100.00
21102;BME280;10709;49.006;12.100;2023-11-21T05:15:46;48894.91;;;-146.00;100.00
21102;BME280;10709;49.006;12.100;2023-11-21T05:18:13;48887.09;;;-146.00;100.00
21102;BME280;10709;49.006;12.100;2023-11-21T05:20:41;48883.16;;;-146.00;100.00
21102;BME280;10709;49.006;12.100;2023-11-21T05:23:09;48887.09;;;-146.00;100.00
21102;BME280;10709;49.006;12.100;2023-11-21T05:25:35;48883.16;;;-146.00;100.00
21102;BME280;10709;49.006;12.100;2023-11-21T05:28:06;48881.22;;;-146.00;100.00
21102;BME280;10709;49.006;12.100;2023-11-21T05:30:33;48887.09;;;-146.00;100.00
21102;BME280;10709;49.006;12.100;2023-11-21T05:32:59;48883.16;;;-146.00;100.00
21102;BME280;10709;49.006;12.100;2023-11-21T05:35:26;48883.16;;;-146.00;100.00
21102;BME280;10709;49.006;12.100;2023-11-21T05:37:55;48883.16;;;-146.00;100.00
21102;BME280;10709;49.006;12.100;2023-11-21T05:40:25;48887.09;;;-146.00;100.00
21102;BME280;10709;49.006;12.100;2023-11-21T05:42:55;48883.16;;;-146.00;100.00
21102;BME280;10709;49.006;12.100;2023-11-21T05:45:22;48881.22;;;-146.00;100.00
21102;BME280;10709;49.006;12.100;2023-11-21T05:47:51;48885.13;;;-146.00;100.00
21102;BME280;10709;49.006;12.100;2023-11-21T05:50:18;48891.00;;;-146.00;100.00
21102;BME280;10709;49.006;12.100;2023-11-21T05:52:46;48887.09;;;-146.00;100.00
21102;BME280;10709;49.006;12.100;2023-11-21T05:55:13;48883.16;;;-146.00;100.00
21102;BME280;10709;49.006;12.100;2023-11-21T05:57:42;48879.25;;;-146.00;100.00
21102;BME280;10709;49.006;12.100;2023-11-21T06:00:14;48879.25;;;-146.00;100.00
21102;BME280;10709;49.006;12.100;2023-11-21T06:13:56;48875.34;;;-146.00;100.00
21102;BME280;10709;49.006;12.100;2023-11-21T06:16:23;48875.34;;;-146.00;100.00
21102;BME280;10709;49.006;12.100;2023-11-21T06:18:50;48879.25;;;-146.00;100.00
21102;BME280;10709;49.006;12.100;2023-11-21T06:21:17;48875.34;;;-146.00;100.00
21102;BME280;10709;49.006;12.100;2023-11-21T06:23:44;48883.16;;;-146.00;100.00
21102;BME280;10709;49.006;12.100;2023-11-21T06:26:11;48875.34;;;-146.00;100.00
21102;BME280;10709;49.006;12.100;2023-11-21T06:28:39;48879.25;;;-146.00;100.00
21102;BME280;10709;49.006;12.100;2023-11-21T06:31:07;48875.34;;;-146.00;100.00
21102;BME280;10709;49.006;12.100;2023-11-21T06:33:34;48875.34;;;-146.00;100.00
21102;BME280;10709;49.006;12.100;2023-11-21T06:36:01;48879.25;;;-146.00;100.00
21102;BME280;10709;49.006;12.100;2023-11-21T06:38:30;48875.34;;;-146.00;100.00
21102;BME280;10709;49.006;12.100;2023-11-21T06:40:59;48879.25;;;-146.00;100.00
21102;BME280;10709;49.006;12.100;2023-11-21T06:43:28;48871.41;;;-146.00;100.00
21102;BME280;10709;49.006;12.100;2023-11-21T06:45:56;48875.34;;;-146.00;100.00
21102;BME280;10709;49.006;12.100;2023-11-21T06:48:25;48875.34;;;-146.00;100.00
21102;BME280;10709;49.006;12.100;2023-11-21T06:50:53;48879.25;;;-146.00;100.00
21102;BME280;10709;49.006;12.100;2023-11-21T06:53:21;48881.22;;;-146.00;100.00
21102;BME280;10709;49.006;12.100;2023-11-21T06:55:48;48887.09;;;-146.00;100.00
21102;BME280;10709;49.006;12.100;2023-11-21T06:58:15;48891.00;;;-146.00;100.00
21102;BME280;10709;49.006;12.100;2023-11-21T07:00:44;48898.84;;;-146.00;100.00
21102;BME280;10709;49.006;12.100;2023-11-21T07:03:13;48892.97;;;-146.00;100.00
21102;BME280;10709;49.006;12.100;2023-11-21T07:05:40;48887.09;;;-146.00;100.00
21102;BME280;10709;49.006;12.100;2023-11-21T07:08:07;48887.09;;;-146.00;100.00
21102;BME280;10709;49.006;12.100;2023-11-21T07:10:34;48883.16;;;-146.00;100.00
21102;BME280;10709;49.006;12.100;2023-11-21T07:13:01;48883.16;;;-146.00;100.00
21102;BME280;10709;49.006;12.100;2023-11-21T07:15:28;48883.16;;;-146.00;100.00
21102;BME280;10709;49.006;12.100;2023-11-21T07:17:54;48887.09;;;-146.00;100.00
21102;BME280;10709;49.006;12.100;2023-11-21T07:20:21;48881.22;;;-146.00;100.00
21102;BME280;10709;49.006;12.100;2023-11-21T07:22:47;48889.03;;;-146.00;100.00
21102;BME280;10709;49.006;12.100;2023-11-21T07:25:14;48887.09;;;-146.00;100.00
21102;BME280;10709;49.006;12.100;2023-11-21T07:27:41;48883.16;;;-146.00;100.00
21102;BME280;10709;49.006;12.100;2023-11-21T07:30:08;48883.16;;;-146.00;100.00
21102;BME280;10709;49.006;12.100;2023-11-21T07:32:37;48881.22;;;-146.00;100.00
21102;BME280;10709;49.006;12.100;2023-11-21T07:35:07;48883.16;;;-146.00;100.00
21102;BME280;10709;49.006;12.100;2023-11-21T07:37:38;48887.09;;;-146.00;100.00
21102;BME280;10709;49.006;12.100;2023-11-21T07:40:05;48881.22;;;-146.00;100.00
21102;BME280;10709;49.006;12.100;2023-11-21T07:42:34;48887.09;;;-146.00;100.00
21102;BME280;10709;49.006;12.100;2023-11-21T07:45:01;48875.34;;;-146.00;100.00
21102;BME280;10709;49.006;12.100;2023-11-21T07:47:29;48879.25;;;-146.00;100.00
21102;BME280;10709;49.006;12.100;2023-11-21T07:49:56;48881.22;;;-146.00;100.00
21102;BME280;10709;49.006;12.100;2023-11-21T07:52:22;48887.09;;;-146.00;100.00
21102;BME280;10709;49.006;12.100;2023-11-21T07:54:49;48881.22;;;-146.00;100.00
21102;BME280;10709;49.006;12.100;2023-11-21T07:57:17;48879.25;;;-146.00;100.00
21102;BME280;10709;49.006;12.100;2023-11-21T07:59:44;48881.22;;;-146.00;100.00
21102;BME280;10709;49.006;12.100;2023-11-21T08:02:11;48875.34;;;-146.00;100.00
21102;BME280;10709;49.006;12.100;2023-11-21T08:04:37;48883.16;;;-146.00;100.00
21102;BME280;10709;49.006;12.100;2023-11-21T08:07:05;48883.16;;;-146.00;100.00
21102;BME280;10709;49.006;12.100;2023-11-21T08:09:34;48885.13;;;-146.00;100.00
21102;BME280;10709;49.006;12.100;2023-11-21T08:12:01;48875.34;;;-146.00;100.00
21102;BME280;10709;49.006;12.100;2023-11-21T08:14:29;48871.41;;;-146.00;100.00
21102;BME280;10709;49.006;12.100;2023-11-21T08:16:58;48879.25;;;-146.00;100.00
21102;BME280;10709;49.006;12.100;2023-11-21T08:19:25;48879.25;;;-146.00;100.00
21102;BME280;10709;49.006;12.100;2023-11-21T08:21:53;48885.13;;;-146.00;100.00
21102;BME280;10709;49.006;12.100;2023-11-21T08:24:21;48875.34;;;-146.00;100.00
21102;BME280;10709;49.006;12.100;2023-11-21T08:26:48;48881.22;;;-146.00;100.00
21102;BME280;10709;49.006;12.100;2023-11-21T08:29:16;48875.34;;;-146.00;100.00
21102;BME280;10709;49.006;12.100;2023-11-21T08:31:42;48879.25;;;-146.00;100.00
21102;BME280;10709;49.006;12.100;2023-11-21T08:34:11;48883.16;;;-146.00;100.00
21102;BME280;10709;49.006;12.100;2023-11-21T08:36:42;48879.25;;;-146.00;100.00
21102;BME280;10709;49.006;12.100;2023-11-21T08:39:09;48883.16;;;-146.00;100.00
21102;BME280;10709;49.006;12.100;2023-11-21T08:41:36;48875.34;;;-146.00;100.00
21102;BME280;10709;49.006;12.100;2023-11-21T08:44:03;48879.25;;;-146.00;100.00
21102;BME280;10709;49.006;12.100;2023-11-21T08:46:34;48873.38;;;-146.00;100.00
21102;BME280;10709;49.006;12.100;2023-11-21T08:49:01;48875.34;;;-146.00;100.00
21102;BME280;10709;49.006;12.100;2023-11-21T08:51:28;48879.25;;;-146.00;100.00
21102;BME280;10709;49.006;12.100;2023-11-21T08:53:56;48881.22;;;-146.00;100.00
21102;BME280;10709;49.006;12.100;2023-11-21T08:56:26;48883.16;;;-146.00;100.00
21102;BME280;10709;49.006;12.100;2023-11-21T08:58:53;48881.22;;;-146.00;100.00
21102;BME280;10709;49.006;12.100;2023-11-21T09:01:19;48881.22;;;-146.00;100.00
21102;BME280;10709;49.006;12.100;2023-11-21T09:03:46;48881.22;;;-146.00;100.00
21102;BME280;10709;49.006;12.100;2023-11-21T09:06:14;48891.00;;;-146.00;100.00
21102;BME280;10709;49.006;12.100;2023-11-21T09:08:41;48883.16;;;-146.00;100.00
21102;BME280;10709;49.006;12.100;2023-11-21T09:11:18;48885.13;;;-146.00;100.00
21102;BME280;10709;49.006;12.100;2023-11-21T09:14:45;48887.09;;;-146.00;100.00
21102;BME280;10709;49.006;12.100;2023-11-21T09:18:31;48887.09;;;-146.00;100.00
21102;BME280;10709;49.006;12.100;2023-11-21T09:22:17;48894.91;;;-146.00;100.00
21102;BME280;10709;49.006;12.100;2023-11-21T09:26:15;48898.84;;;-146.00;100.00
21102;BME280;10709;49.006;12.100;2023-11-21T09:33:49;48914.50;;;-146.00;100.00
21102;BME280;10709;49.006;12.100;2023-11-21T09:37:13;48900.78;;;-146.00;100.00
21102;BME280;10709;49.006;12.100;2023-11-21T09:39:40;48898.84;;;-146.00;100.00
21102;BME280;10709;49.006;12.100;2023-11-21T09:42:12;48902.75;;;-146.00;100.00
21102;BME280;10709;49.006;12.100;2023-11-21T09:45:03;48887.09;;;-146.00;100.00
21102;BME280;10709;49.006;12.100;2023-11-21T09:47:35;48904.72;;;-146.00;100.00
21102;BME280;10709;49.006;12.100;2023-11-21T09:50:07;48908.63;;;-146.00;100.00
21102;BME280;10709;49.006;12.100;2023-11-21T09:55:39;48887.09;;;-146.00;100.00
21102;BME280;10709;49.006;12.100;2023-11-21T09:58:08;48906.69;;;-146.00;100.00
21102;BME280;10709;49.006;12.100;2023-11-21T10:00:43;48904.72;;;-146.00;100.00
21102;BME280;10709;49.006;12.100;2023-11-21T10:03:12;48916.47;;;-146.00;100.00
21102;BME280;10709;49.006;12.100;2023-11-21T10:05:41;48922.34;;;-146.00;100.00
21102;BME280;10709;49.006;12.100;2023-11-21T10:08:09;48926.25;;;-146.00;100.00
21102;BME280;10709;49.006;12.100;2023-11-21T10:10:38;48922.34;;;-146.00;100.00
21102;BME280;10709;49.006;12.100;2023-11-21T10:13:11;48934.09;;;-146.00;100.00
21102;BME280;10709;49.006;12.100;2023-11-21T10:15:41;48934.09;;;-146.00;100.00
21102;BME280;10709;49.006;12.100;2023-11-21T10:18:11;48928.22;;;-146.00;100.00
21102;BME280;10709;49.006;12.100;2023-11-21T10:20:38;48918.44;;;-146.00;100.00
21102;BME280;10709;49.006;12.100;2023-11-21T10:23:04;48916.47;;;-146.00;100.00
21102;BME280;10709;49.006;12.100;2023-11-21T10:25:34;48914.50;;;-146.00;100.00
21102;BME280;10709;49.006;12.100;2023-11-21T10:28:04;48914.50;;;-146.00;100.00
21102;BME280;10709;49.006;12.100;2023-11-21T10:30:38;48906.69;;;-146.00;100.00
21102;BME280;10709;49.006;12.100;2023-11-21T10:33:06;48906.69;;;-146.00;100.00
21102;BME280;10709;49.006;12.100;2023-11-21T10:35:48;48891.00;;;-146.00;100.00
21102;BME280;10709;49.006;12.100;2023-11-21T10:38:18;48910.59;;;-146.00;100.00
21102;BME280;10709;49.006;12.100;2023-11-21T10:40:46;48920.38;;;-146.00;100.00
21102;BME280;10709;49.006;12.100;2023-11-21T10:43:14;48930.19;;;-146.00;100.00
21102;BME280;10709;49.006;12.100;2023-11-21T10:45:43;48938.03;;;-146.00;100.00
21102;BME280;10709;49.006;12.100;2023-11-21T10:48:10;48945.84;;;-146.00;100.00
21102;BME280;10709;49.006;12.100;2023-11-21T10:50:40;48951.72;;;-146.00;100.00
21102;BME280;10709;49.006;12.100;2023-11-21T10:53:07;48965.44;;;-146.00;100.00
21102;BME280;10709;49.006;12.100;2023-11-21T10:55:34;48965.44;;;-146.00;100.00
21102;BME280;10709;49.006;12.100;2023-11-21T10:58:02;48953.69;;;-146.00;100.00
21102;BME280;10709;49.006;12.100;2023-11-21T11:00:34;48969.38;;;-146.00;100.00
21102;BME280;10709;49.006;12.100;2023-11-21T11:03:02;48981.13;;;-146.00;100.00
21102;BME280;10709;49.006;12.100;2023-11-21T11:05:30;48981.13;;;-146.00;100.00
21102;BME280;10709;49.006;12.100;2023-11-21T11:08:04;48957.59;;;-146.00;100.00
21102;BME280;10709;49.006;12.100;2023-11-21T11:10:31;48973.28;;;-146.00;100.00
21102;BME280;10709;49.006;12.100;2023-11-21T11:13:01;49004.63;;;-146.00;100.00
21102;BME280;10709;49.006;12.100;2023-11-21T11:15:28;49006.59;;;-146.00;100.00
21102;BME280;10709;49.006;12.100;2023-11-21T11:17:55;48977.19;;;-146.00;100.00
21102;BME280;10709;49.006;12.100;2023-11-21T11:20:31;48998.75;;;-146.00;100.00
21102;BME280;10709;49.006;12.100;2023-11-21T11:28:52;48973.28;;;-146.00;100.00
21102;BME280;10709;49.006;12.100;2023-11-21T11:32:27;48988.94;;;-146.00;100.00
21102;BME280;10709;49.006;12.100;2023-11-21T11:34:41;48992.88;;;-146.00;100.00
21102;BME280;10709;49.006;12.100;2023-11-21T11:37:13;48996.78;;;-146.00;100.00
21102;BME280;10709;49.006;12.100;2023-11-21T11:39:43;48996.78;;;-146.00;100.00
21102;BME280;10709;49.006;12.100;2023-11-21T11:42:14;48992.88;;;-146.00;100.00
21102;BME280;10709;49.006;12.100;2023-11-21T11:50:08;48977.19;;;-146.00;100.00
21102;BME280;10709;49.006;12.100;2023-11-21T11:52:46;49000.72;;;-146.00;100.00
21102;BME280;10709;49.006;12.100;2023-11-21T11:55:15;48985.03;;;-146.00;100.00
21102;BME280;10709;49.006;12.100;2023-11-21T11:57:51;48992.88;;;-146.00;100.00
21102;BME280;10709;49.006;12.100;2023-11-21T12:00:33;48987.00;;;-146.00;100.00
21102;BME280;10709;49.006;12.100;2023-11-21T12:03:05;48994.84;;;-146.00;100.00
21102;BME280;10709;49.006;12.100;2023-11-21T12:05:35;49000.72;;;-146.00;100.00
21102;BME280;10709;49.006;12.100;2023-11-21T12:08:06;49010.50;;;-146.00;100.00
21102;BME280;10709;49.006;12.100;2023-11-21T12:10:35;49026.19;;;-146.00;100.00
21102;BME280;10709;49.006;12.100;2023-11-21T12:13:06;49008.53;;;-146.00;100.00
21102;BME280;10709;49.006;12.100;2023-11-21T12:15:34;48992.88;;;-146.00;100.00
21102;BME280;10709;49.006;12.100;2023-11-21T12:18:02;48979.16;;;-146.00;100.00
21102;BME280;10709;49.006;12.100;2023-11-21T12:20:30;48969.38;;;-146.00;100.00
21102;BME280;10709;49.006;12.100;2023-11-21T12:22:59;48981.13;;;-146.00;100.00
21102;BME280;10709;49.006;12.100;2023-11-21T12:25:30;48996.78;;;-146.00;100.00
21102;BME280;10709;49.006;12.100;2023-11-21T12:28:01;48975.25;;;-146.00;100.00
21102;BME280;10709;49.006;12.100;2023-11-21T12:30:31;48963.50;;;-146.00;100.00
21102;BME280;10709;49.006;12.100;2023-11-21T12:32:59;48963.50;;;-146.00;100.00
21102;BME280;10709;49.006;12.100;2023-11-21T12:35:28;48985.03;;;-146.00;100.00
21102;BME280;10709;49.006;12.100;2023-11-21T12:37:56;49000.72;;;-146.00;100.00
21102;BME280;10709;49.006;12.100;2023-11-21T12:40:26;48987.00;;;-146.00;100.00
21102;BME280;10709;49.006;12.100;2023-11-21T12:42:57;49024.22;;;-146.00;100.00
21102;BME280;10709;49.006;12.100;2023-11-21T12:45:26;48994.84;;;-146.00;100.00
21102;BME280;10709;49.006;12.100;2023-11-21T12:47:55;48992.88;;;-146.00;100.00
21102;BME280;10709;49.006;12.100;2023-11-21T12:50:29;48977.19;;;-146.00;100.00
21102;BME280;10709;49.006;12.100;2023-11-21T12:53:03;48973.28;;;-146.00;100.00
21102;BME280;10709;49.006;12.100;2023-11-21T12:55:33;48977.19;;;-146.00;100.00
21102;BME280;10709;49.006;12.100;2023-11-21T12:58:06;48988.94;;;-146.00;100.00
21102;BME280;10709;49.006;12.100;2023-11-21T13:00:47;48977.19;;;-146.00;100.00
21102;BME280;10709;49.006;12.100;2023-11-21T13:03:16;49004.63;;;-146.00;100.00